sensor_id;sensor_type;location;lat;lon;timestamp;P1;durP1;ratioP1;P2;durP2;ratioP2
47481;SDS011;33219;47.410;9.730;2023-03-01T00:01:14;30.90;;;16.13;;
47481;SDS011;33219;47.410;9.730;2023-03-01T00:03:43;26.57;;;15.80;;
47481;SDS011;33219;47.410;9.730;2023-03-01T00:06:11;26.70;;;15.90;;
47481;SDS011;33219;47.410;9.730;2023-03-01T00:08:39;30.37;;;17.07;;
47481;SDS011;33219;47.410;9.730;2023-03-01T00:11:08;25.97;;;15.90;;
47481;SDS011;33219;47.410;9.730;2023-03-01T00:13:40;28.17;;;15.90;;
47481;SDS011;33219;47.410;9.730;2023-03-01T00:16:10;27.87;;;15.53;;
47481;SDS011;33219;47.410;9.730;2023-03-01T00:18:39;30.87;;;16.80;;
47481;SDS011;33219;47.410;9.730;2023-03-01T00:21:07;30.20;;;16.53;;
47481;SDS011;33219;47.410;9.730;2023-03-01T00:23:34;30.97;;;17.20;;
47481;SDS011;33219;47.410;9.730;2023-03-01T00:26:05;29.33;;;16.87;;
47481;SDS011;33219;47.410;9.730;2023-03-01T00:28:33;31.80;;;16.60;;
47481;SDS011;33219;47.410;9.730;2023-03-01T00:33:35;30.20;;;17.27;;
47481;SDS011;33219;47.410;9.730;2023-03-01T00:36:03;30.47;;;16.60;;
47481;SDS011;33219;47.410;9.730;2023-03-01T00:38:34;31.17;;;16.60;;
47481;SDS011;33219;47.410;9.730;2023-03-01T00:41:10;30.87;;;16.50;;
47481;SDS011;33219;47.410;9.730;2023-03-01T00:43:35;30.70;;;16.67;;
47481;SDS011;33219;47.410;9.730;2023-03-01T00:46:03;23.50;;;13.60;;
47481;SDS011;33219;47.410;9.730;2023-03-01T00:48:33;19.43;;;11.50;;
47481;SDS011;33219;47.410;9.730;2023-03-01T00:51:04;17.50;;;10.87;;
47481;SDS011;33219;47.410;9.730;2023-03-01T00:53:37;18.60;;;10.77;;
47481;SDS011;33219;47.410;9.730;2023-03-01T00:56:05;20.07;;;10.73;;
47481;SDS011;33219;47.410;9.730;2023-03-01T00:58:34;19.57;;;10.57;;
47481;SDS011;33219;47.410;9.730;2023-03-01T01:01:12;18.70;;;10.60;;
47481;SDS011;33219;47.410;9.730;2023-03-01T01:03:40;18.33;;;10.40;;
47481;SDS011;33219;47.410;9.730;2023-03-01T01:06:12;18.57;;;10.53;;
47481;SDS011;33219;47.410;9.730;2023-03-01T01:08:41;20.00;;;11.03;;
47481;SDS011;33219;47.410;9.730;2023-03-01T01:11:09;19.37;;;10.87;;
47481;SDS011;33219;47.410;9.730;2023-03-01T01:13:38;17.63;;;10.40;;
47481;SDS011;33219;47.410;9.730;2023-03-01T01:16:06;17.70;;;10.33;;
47481;SDS011;33219;47.410;9.730;2023-03-01T01:18:35;19.73;;;9.90;;
47481;SDS011;33219;47.410;9.730;2023-03-01T01:21:03;18.40;;;10.53;;
47481;SDS011;33219;47.410;9.730;2023-03-01T01:23:36;17.43;;;10.60;;
47481;SDS011;33219;47.410;9.730;2023-03-01T01:26:08;21.23;;;11.27;;
47481;SDS011;33219;47.410;9.730;2023-03-01T01:28:44;18.57;;;10.70;;
47481;SDS011;33219;47.410;9.730;2023-03-01T01:31:12;18.93;;;10.43;;
47481;SDS011;33219;47.410;9.730;2023-03-01T01:33:40;19.00;;;10.30;;
47481;SDS011;33219;47.410;9.730;2023-03-01T01:36:08;17.80;;;10.37;;
47481;SDS011;33219;47.410;9.730;2023-03-01T01:38:36;18.33;;;10.17;;
47481;SDS011;33219;47.410;9.730;2023-03-01T01:41:05;18.57;;;9.83;;
47481;SDS011;33219;47.410;9.730;2023-03-01T01:43:40;19.63;;;10.90;;
47481;SDS011;33219;47.410;9.730;2023-03-01T01:48:46;18.87;;;9.83;;
47481;SDS011;33219;47.410;9.730;2023-03-01T01:51:13;19.33;;;10.63;;
47481;SDS011;33219;47.410;9.730;2023-03-01T01:53:42;19.67;;;10.87;;
47481;SDS011;33219;47.410;9.730;2023-03-01T01:56:11;17.30;;;10.17;;
47481;SDS011;33219;47.410;9.730;2023-03-01T01:58:40;19.67;;;11.47;;
47481;SDS011;33219;47.410;9.730;2023-03-01T02:01:10;20.03;;;11.07;;
47481;SDS011;33219;47.410;9.730;2023-03-01T02:03:38;18.77;;;11.10;;
47481;SDS011;33219;47.410;9.730;2023-03-01T02:06:54;19.73;;;10.57;;
47481;SDS011;33219;47.410;9.730;2023-03-01T02:08:39;20.00;;;10.67;;
47481;SDS011;33219;47.410;9.730;2023-03-01T02:11:08;17.30;;;10.03;;
47481;SDS011;33219;47.410;9.730;2023-03-01T02:13:37;18.60;;;10.07;;
47481;SDS011;33219;47.410;9.730;2023-03-01T02:16:05;19.87;;;10.90;;
47481;SDS011;33219;47.410;9.730;2023-03-01T02:18:38;21.33;;;11.57;;
47481;SDS011;33219;47.410;9.730;2023-03-01T02:21:10;18.83;;;10.93;;
47481;SDS011;33219;47.410;9.730;2023-03-01T02:23:41;19.50;;;11.97;;
47481;SDS011;33219;47.410;9.730;2023-03-01T02:26:11;21.93;;;11.40;;
47481;SDS011;33219;47.410;9.730;2023-03-01T02:28:40;16.33;;;10.10;;
47481;SDS011;33219;47.410;9.730;2023-03-01T02:31:09;17.30;;;9.57;;
47481;SDS011;33219;47.410;9.730;2023-03-01T02:33:57;18.23;;;10.47;;
47481;SDS011;33219;47.410;9.730;2023-03-01T02:36:26;19.33;;;10.70;;
47481;SDS011;33219;47.410;9.730;2023-03-01T02:38:58;20.20;;;11.10;;
47481;SDS011;33219;47.410;9.730;2023-03-01T02:41:28;18.13;;;10.67;;
47481;SDS011;33219;47.410;9.730;2023-03-01T02:43:58;19.67;;;11.20;;
47481;SDS011;33219;47.410;9.730;2023-03-01T02:46:26;21.40;;;11.20;;
47481;SDS011;33219;47.410;9.730;2023-03-01T02:48:57;18.80;;;10.37;;
47481;SDS011;33219;47.410;9.730;2023-03-01T02:54:22;22.43;;;12.07;;
47481;SDS011;33219;47.410;9.730;2023-03-01T02:56:51;22.27;;;11.43;;
47481;SDS011;33219;47.410;9.730;2023-03-01T02:59:20;22.13;;;11.87;;
47481;SDS011;33219;47.410;9.730;2023-03-01T03:01:50;20.07;;;11.53;;
47481;SDS011;33219;47.410;9.730;2023-03-01T03:04:18;20.17;;;11.30;;
47481;SDS011;33219;47.410;9.730;2023-03-01T03:06:47;20.93;;;11.00;;
47481;SDS011;33219;47.410;9.730;2023-03-01T03:09:16;20.50;;;10.83;;
47481;SDS011;33219;47.410;9.730;2023-03-01T03:11:44;20.43;;;10.57;;
47481;SDS011;33219;47.410;9.730;2023-03-01T03:14:13;22.83;;;11.67;;
47481;SDS011;33219;47.410;9.730;2023-03-01T03:16:43;24.23;;;12.83;;
47481;SDS011;33219;47.410;9.730;2023-03-01T03:19:12;21.60;;;12.33;;
47481;SDS011;33219;47.410;9.730;2023-03-01T03:21:40;20.50;;;11.57;;
47481;SDS011;33219;47.410;9.730;2023-03-01T03:24:08;24.97;;;12.80;;
47481;SDS011;33219;47.410;9.730;2023-03-01T03:26:36;24.40;;;14.07;;
47481;SDS011;33219;47.410;9.730;2023-03-01T03:29:03;23.80;;;13.63;;
47481;SDS011;33219;47.410;9.730;2023-03-01T03:31:31;24.30;;;13.53;;
47481;SDS011;33219;47.410;9.730;2023-03-01T03:33:58;26.87;;;13.47;;
47481;SDS011;33219;47.410;9.730;2023-03-01T03:36:26;26.60;;;14.00;;
47481;SDS011;33219;47.410;9.730;2023-03-01T03:38:54;26.40;;;14.33;;
47481;SDS011;33219;47.410;9.730;2023-03-01T03:41:21;26.00;;;13.30;;
47481;SDS011;33219;47.410;9.730;2023-03-01T03:43:49;26.83;;;14.13;;
47481;SDS011;33219;47.410;9.730;2023-03-01T03:46:19;23.03;;;13.47;;
47481;SDS011;33219;47.410;9.730;2023-03-01T03:48:47;24.37;;;12.30;;
47481;SDS011;33219;47.410;9.730;2023-03-01T03:51:16;23.77;;;14.20;;
47481;SDS011;33219;47.410;9.730;2023-03-01T03:53:44;25.47;;;13.30;;
47481;SDS011;33219;47.410;9.730;2023-03-01T03:56:12;23.63;;;12.73;;
47481;SDS011;33219;47.410;9.730;2023-03-01T03:58:40;22.83;;;11.97;;
47481;SDS011;33219;47.410;9.730;2023-03-01T04:01:08;23.20;;;13.03;;
47481;SDS011;33219;47.410;9.730;2023-03-01T04:03:35;25.87;;;12.40;;
47481;SDS011;33219;47.410;9.730;2023-03-01T04:06:03;24.27;;;12.87;;
47481;SDS011;33219;47.410;9.730;2023-03-01T04:08:31;27.53;;;14.13;;
47481;SDS011;33219;47.410;9.730;2023-03-01T04:11:00;25.33;;;13.50;;
47481;SDS011;33219;47.410;9.730;2023-03-01T04:13:46;24.83;;;13.43;;
47481;SDS011;33219;47.410;9.730;2023-03-01T04:16:14;24.77;;;13.50;;
47481;SDS011;33219;47.410;9.730;2023-03-01T04:18:43;20.70;;;11.80;;
47481;SDS011;33219;47.410;9.730;2023-03-01T04:21:11;24.57;;;12.67;;
47481;SDS011;33219;47.410;9.730;2023-03-01T04:23:39;21.00;;;12.73;;
47481;SDS011;33219;47.410;9.730;2023-03-01T04:26:07;24.90;;;13.63;;
47481;SDS011;33219;47.410;9.730;2023-03-01T04:28:37;26.27;;;13.80;;
47481;SDS011;33219;47.410;9.730;2023-03-01T04:31:12;25.23;;;14.13;;
47481;SDS011;33219;47.410;9.730;2023-03-01T04:33:43;26.13;;;12.57;;
47481;SDS011;33219;47.410;9.730;2023-03-01T04:36:13;25.93;;;13.30;;
47481;SDS011;33219;47.410;9.730;2023-03-01T04:38:43;25.10;;;13.63;;
47481;SDS011;33219;47.410;9.730;2023-03-01T04:41:15;24.37;;;12.23;;
47481;SDS011;33219;47.410;9.730;2023-03-01T04:43:44;26.27;;;13.47;;
47481;SDS011;33219;47.410;9.730;2023-03-01T04:46:13;27.57;;;13.67;;
47481;SDS011;33219;47.410;9.730;2023-03-01T04:48:42;24.97;;;13.00;;
47481;SDS011;33219;47.410;9.730;2023-03-01T04:51:11;20.80;;;11.70;;
47481;SDS011;33219;47.410;9.730;2023-03-01T04:53:42;21.87;;;12.57;;
47481;SDS011;33219;47.410;9.730;2023-03-01T04:56:10;22.60;;;11.47;;
47481;SDS011;33219;47.410;9.730;2023-03-01T04:58:39;22.47;;;12.17;;
47481;SDS011;33219;47.410;9.730;2023-03-01T05:01:11;24.57;;;12.70;;
47481;SDS011;33219;47.410;9.730;2023-03-01T05:03:40;25.95;;;13.25;;
47481;SDS011;33219;47.410;9.730;2023-03-01T05:06:11;23.53;;;11.43;;
47481;SDS011;33219;47.410;9.730;2023-03-01T05:08:38;22.80;;;11.97;;
47481;SDS011;33219;47.410;9.730;2023-03-01T05:11:07;23.87;;;12.07;;
47481;SDS011;33219;47.410;9.730;2023-03-01T05:13:36;23.50;;;12.90;;
47481;SDS011;33219;47.410;9.730;2023-03-01T05:16:05;21.60;;;12.10;;
47481;SDS011;33219;47.410;9.730;2023-03-01T05:18:35;20.73;;;11.43;;
47481;SDS011;33219;47.410;9.730;2023-03-01T05:21:08;22.63;;;11.53;;
47481;SDS011;33219;47.410;9.730;2023-03-01T05:23:33;23.10;;;11.63;;
47481;SDS011;33219;47.410;9.730;2023-03-01T05:26:02;20.07;;;10.53;;
47481;SDS011;33219;47.410;9.730;2023-03-01T05:28:31;20.97;;;10.77;;
47481;SDS011;33219;47.410;9.730;2023-03-01T05:31:00;20.97;;;10.97;;
47481;SDS011;33219;47.410;9.730;2023-03-01T05:33:27;18.97;;;9.57;;
47481;SDS011;33219;47.410;9.730;2023-03-01T05:35:59;20.90;;;11.30;;
47481;SDS011;33219;47.410;9.730;2023-03-01T05:38:26;23.60;;;11.70;;
47481;SDS011;33219;47.410;9.730;2023-03-01T05:40:53;21.60;;;11.73;;
47481;SDS011;33219;47.410;9.730;2023-03-01T05:43:21;20.93;;;10.53;;
47481;SDS011;33219;47.410;9.730;2023-03-01T05:45:49;21.77;;;11.37;;
47481;SDS011;33219;47.410;9.730;2023-03-01T05:48:16;20.90;;;11.00;;
47481;SDS011;33219;47.410;9.730;2023-03-01T05:50:45;21.93;;;11.80;;
47481;SDS011;33219;47.410;9.730;2023-03-01T05:53:14;22.17;;;11.20;;
47481;SDS011;33219;47.410;9.730;2023-03-01T05:55:45;22.62;;;11.10;;
47481;SDS011;33219;47.410;9.730;2023-03-01T05:58:16;22.53;;;11.73;;
47481;SDS011;33219;47.410;9.730;2023-03-01T06:00:45;22.57;;;11.90;;
47481;SDS011;33219;47.410;9.730;2023-03-01T06:03:14;20.00;;;11.03;;
47481;SDS011;33219;47.410;9.730;2023-03-01T06:05:43;19.93;;;10.63;;
47481;SDS011;33219;47.410;9.730;2023-03-01T06:08:12;22.03;;;11.03;;
47481;SDS011;33219;47.410;9.730;2023-03-01T06:10:40;20.00;;;11.13;;
47481;SDS011;33219;47.410;9.730;2023-03-01T06:13:08;20.43;;;10.97;;
47481;SDS011;33219;47.410;9.730;2023-03-01T06:15:35;21.47;;;10.73;;
47481;SDS011;33219;47.410;9.730;2023-03-01T06:18:03;20.17;;;10.83;;
47481;SDS011;33219;47.410;9.730;2023-03-01T06:20:30;20.87;;;11.30;;
47481;SDS011;33219;47.410;9.730;2023-03-01T06:22:58;24.27;;;12.80;;
47481;SDS011;33219;47.410;9.730;2023-03-01T06:25:26;21.37;;;10.93;;
47481;SDS011;33219;47.410;9.730;2023-03-01T06:27:54;17.80;;;10.33;;
47481;SDS011;33219;47.410;9.730;2023-03-01T06:30:25;22.83;;;11.73;;
47481;SDS011;33219;47.410;9.730;2023-03-01T06:32:54;21.83;;;11.10;;
47481;SDS011;33219;47.410;9.730;2023-03-01T06:35:28;23.87;;;12.03;;
47481;SDS011;33219;47.410;9.730;2023-03-01T06:38:02;20.77;;;10.57;;
47481;SDS011;33219;47.410;9.730;2023-03-01T06:55:58;23.30;;;12.07;;
47481;SDS011;33219;47.410;9.730;2023-03-01T06:58:27;20.17;;;10.93;;
47481;SDS011;33219;47.410;9.730;2023-03-01T07:01:04;23.33;;;11.43;;
47481;SDS011;33219;47.410;9.730;2023-03-01T07:03:39;21.97;;;12.50;;
47481;SDS011;33219;47.410;9.730;2023-03-01T07:06:17;20.80;;;11.83;;
47481;SDS011;33219;47.410;9.730;2023-03-01T07:08:47;25.97;;;13.50;;
47481;SDS011;33219;47.410;9.730;2023-03-01T07:11:22;23.97;;;12.80;;
47481;SDS011;33219;47.410;9.730;2023-03-01T07:13:56;21.73;;;12.13;;
47481;SDS011;33219;47.410;9.730;2023-03-01T07:16:31;27.17;;;13.00;;
47481;SDS011;33219;47.410;9.730;2023-03-01T07:19:10;23.60;;;11.73;;
47481;SDS011;33219;47.410;9.730;2023-03-01T07:21:44;23.53;;;11.60;;
47481;SDS011;33219;47.410;9.730;2023-03-01T07:24:23;22.37;;;11.53;;
47481;SDS011;33219;47.410;9.730;2023-03-01T07:26:54;24.23;;;12.23;;
47481;SDS011;33219;47.410;9.730;2023-03-01T07:29:29;21.93;;;12.07;;
47481;SDS011;33219;47.410;9.730;2023-03-01T07:32:05;24.20;;;11.97;;
47481;SDS011;33219;47.410;9.730;2023-03-01T07:34:39;21.23;;;12.83;;
47481;SDS011;33219;47.410;9.730;2023-03-01T07:37:16;21.70;;;11.87;;
47481;SDS011;33219;47.410;9.730;2023-03-01T07:39:51;22.90;;;12.47;;
47481;SDS011;33219;47.410;9.730;2023-03-01T07:42:30;24.73;;;12.27;;
47481;SDS011;33219;47.410;9.730;2023-03-01T07:45:19;22.77;;;12.17;;
47481;SDS011;33219;47.410;9.730;2023-03-01T07:47:50;21.90;;;12.73;;
47481;SDS011;33219;47.410;9.730;2023-03-01T07:53:41;24.53;;;12.57;;
47481;SDS011;33219;47.410;9.730;2023-03-01T07:59:27;21.87;;;11.80;;
47481;SDS011;33219;47.410;9.730;2023-03-01T08:02:04;23.33;;;12.07;;
47481;SDS011;33219;47.410;9.730;2023-03-01T08:10:42;24.77;;;12.70;;
47481;SDS011;33219;47.410;9.730;2023-03-01T08:16:53;21.47;;;12.27;;
47481;SDS011;33219;47.410;9.730;2023-03-01T08:39:02;22.70;;;12.00;;
47481;SDS011;33219;47.410;9.730;2023-03-01T08:44:45;23.67;;;12.77;;
47481;SDS011;33219;47.410;9.730;2023-03-01T08:47:21;22.17;;;12.07;;
47481;SDS011;33219;47.410;9.730;2023-03-01T08:49:56;24.23;;;13.87;;
47481;SDS011;33219;47.410;9.730;2023-03-01T08:52:33;25.30;;;12.03;;
47481;SDS011;33219;47.410;9.730;2023-03-01T08:55:09;22.93;;;12.20;;
47481;SDS011;33219;47.410;9.730;2023-03-01T08:57:44;19.40;;;11.60;;
47481;SDS011;33219;47.410;9.730;2023-03-01T09:00:18;19.77;;;11.87;;
47481;SDS011;33219;47.410;9.730;2023-03-01T09:02:53;23.90;;;12.33;;
47481;SDS011;33219;47.410;9.730;2023-03-01T09:05:27;24.00;;;12.40;;
47481;SDS011;33219;47.410;9.730;2023-03-01T09:08:02;22.07;;;11.97;;
47481;SDS011;33219;47.410;9.730;2023-03-01T09:10:37;23.73;;;12.77;;
47481;SDS011;33219;47.410;9.730;2023-03-01T09:13:11;23.13;;;12.47;;
47481;SDS011;33219;47.410;9.730;2023-03-01T09:15:46;23.63;;;13.73;;
47481;SDS011;33219;47.410;9.730;2023-03-01T09:18:20;22.10;;;12.67;;
47481;SDS011;33219;47.410;9.730;2023-03-01T09:21:08;21.93;;;12.63;;
47481;SDS011;33219;47.410;9.730;2023-03-01T09:23:50;21.48;;;12.10;;
47481;SDS011;33219;47.410;9.730;2023-03-01T09:26:34;24.93;;;13.00;;
47481;SDS011;33219;47.410;9.730;2023-03-01T09:29:29;21.93;;;13.15;;
47481;SDS011;33219;47.410;9.730;2023-03-01T09:35:10;19.30;;;11.87;;
47481;SDS011;33219;47.410;9.730;2023-03-01T09:50:28;23.17;;;12.87;;
47481;SDS011;33219;47.410;9.730;2023-03-01T09:56:40;22.83;;;12.57;;
47481;SDS011;33219;47.410;9.730;2023-03-01T10:11:38;22.55;;;12.93;;
47481;SDS011;33219;47.410;9.730;2023-03-01T10:13:59;22.17;;;12.53;;
47481;SDS011;33219;47.410;9.730;2023-03-01T10:23:34;23.33;;;13.20;;
47481;SDS011;33219;47.410;9.730;2023-03-01T10:26:23;25.88;;;14.33;;
47481;SDS011;33219;47.410;9.730;2023-03-01T10:29:09;23.90;;;13.87;;
47481;SDS011;33219;47.410;9.730;2023-03-01T10:31:49;24.47;;;13.23;;
47481;SDS011;33219;47.410;9.730;2023-03-01T10:34:30;21.67;;;13.00;;
47481;SDS011;33219;47.410;9.730;2023-03-01T10:40:02;22.40;;;13.30;;
47481;SDS011;33219;47.410;9.730;2023-03-01T10:43:02;20.95;;;13.08;;
47481;SDS011;33219;47.410;9.730;2023-03-01T10:48:13;20.68;;;12.88;;
47481;SDS011;33219;47.410;9.730;2023-03-01T10:50:52;23.85;;;13.08;;
47481;SDS011;33219;47.410;9.730;2023-03-01T10:53:38;21.87;;;12.85;;
47481;SDS011;33219;47.410;9.730;2023-03-01T10:56:17;20.70;;;12.18;;
47481;SDS011;33219;47.410;9.730;2023-03-01T11:01:35;19.87;;;11.97;;
47481;SDS011;33219;47.410;9.730;2023-03-01T11:04:14;20.30;;;12.33;;
47481;SDS011;33219;47.410;9.730;2023-03-01T11:06:57;21.15;;;11.97;;
47481;SDS011;33219;47.410;9.730;2023-03-01T11:09:23;21.77;;;12.78;;
47481;SDS011;33219;47.410;9.730;2023-03-01T11:11:58;19.82;;;12.30;;
47481;SDS011;33219;47.410;9.730;2023-03-01T11:14:37;22.25;;;13.35;;
47481;SDS011;33219;47.410;9.730;2023-03-01T11:17:17;20.75;;;12.68;;
47481;SDS011;33219;47.410;9.730;2023-03-01T11:19:43;23.83;;;13.60;;
47481;SDS011;33219;47.410;9.730;2023-03-01T11:22:19;22.67;;;13.40;;
47481;SDS011;33219;47.410;9.730;2023-03-01T11:24:54;24.27;;;14.03;;
47481;SDS011;33219;47.410;9.730;2023-03-01T11:27:36;21.20;;;13.03;;
47481;SDS011;33219;47.410;9.730;2023-03-01T11:39:38;19.52;;;11.63;;
47481;SDS011;33219;47.410;9.730;2023-03-01T11:45:36;20.37;;;12.73;;
47481;SDS011;33219;47.410;9.730;2023-03-01T11:50:55;19.92;;;11.33;;
47481;SDS011;33219;47.410;9.730;2023-03-01T12:04:54;15.50;;;9.80;;
47481;SDS011;33219;47.410;9.730;2023-03-01T12:28:19;20.80;;;12.15;;
47481;SDS011;33219;47.410;9.730;2023-03-01T12:31:12;14.98;;;9.45;;
47481;SDS011;33219;47.410;9.730;2023-03-01T12:36:32;18.52;;;11.65;;
47481;SDS011;33219;47.410;9.730;2023-03-01T12:50:24;18.57;;;11.53;;
47481;SDS011;33219;47.410;9.730;2023-03-01T12:52:56;17.98;;;12.53;;
47481;SDS011;33219;47.410;9.730;2023-03-01T12:55:37;18.20;;;12.15;;
47481;SDS011;33219;47.410;9.730;2023-03-01T12:58:22;20.05;;;12.93;;
47481;SDS011;33219;47.410;9.730;2023-03-01T13:01:00;22.05;;;13.75;;
47481;SDS011;33219;47.410;9.730;2023-03-01T13:11:57;18.45;;;12.40;;
47481;SDS011;33219;47.410;9.730;2023-03-01T13:16:53;19.15;;;12.33;;
47481;SDS011;33219;47.410;9.730;2023-03-01T13:19:22;22.85;;;14.53;;
47481;SDS011;33219;47.410;9.730;2023-03-01T13:21:53;23.38;;;13.95;;
47481;SDS011;33219;47.410;9.730;2023-03-01T13:24:38;19.80;;;12.15;;
47481;SDS011;33219;47.410;9.730;2023-03-01T13:29:47;19.98;;;13.08;;
47481;SDS011;33219;47.410;9.730;2023-03-01T13:34:55;22.02;;;13.48;;
47481;SDS011;33219;47.410;9.730;2023-03-01T13:37:28;21.27;;;13.95;;
47481;SDS011;33219;47.410;9.730;2023-03-01T13:39:58;22.70;;;13.35;;
47481;SDS011;33219;47.410;9.730;2023-03-01T13:45:12;19.65;;;12.63;;
47481;SDS011;33219;47.410;9.730;2023-03-01T13:47:42;22.15;;;12.30;;
47481;SDS011;33219;47.410;9.730;2023-03-01T13:50:24;21.45;;;13.43;;
47481;SDS011;33219;47.410;9.730;2023-03-01T13:52:52;19.67;;;12.73;;
47481;SDS011;33219;47.410;9.730;2023-03-01T13:57:53;20.35;;;12.78;;
47481;SDS011;33219;47.410;9.730;2023-03-01T14:00:30;18.27;;;11.15;;
47481;SDS011;33219;47.410;9.730;2023-03-01T14:03:00;22.00;;;13.28;;
47481;SDS011;33219;47.410;9.730;2023-03-01T14:05:30;21.37;;;13.25;;
47481;SDS011;33219;47.410;9.730;2023-03-01T14:07:58;21.60;;;12.85;;
47481;SDS011;33219;47.410;9.730;2023-03-01T14:10:28;22.45;;;13.90;;
47481;SDS011;33219;47.410;9.730;2023-03-01T14:15:39;21.75;;;13.98;;
47481;SDS011;33219;47.410;9.730;2023-03-01T14:20:48;22.10;;;13.65;;
47481;SDS011;33219;47.410;9.730;2023-03-01T14:23:19;22.45;;;14.07;;
47481;SDS011;33219;47.410;9.730;2023-03-01T14:25:51;24.35;;;15.45;;
47481;SDS011;33219;47.410;9.730;2023-03-01T14:28:24;22.07;;;13.38;;
47481;SDS011;33219;47.410;9.730;2023-03-01T14:30:54;23.75;;;14.80;;
47481;SDS011;33219;47.410;9.730;2023-03-01T14:33:25;23.07;;;13.90;;
47481;SDS011;33219;47.410;9.730;2023-03-01T14:41:04;22.95;;;13.68;;
47481;SDS011;33219;47.410;9.730;2023-03-01T14:43:33;23.98;;;14.28;;
47481;SDS011;33219;47.410;9.730;2023-03-01T14:46:04;24.25;;;14.68;;
47481;SDS011;33219;47.410;9.730;2023-03-01T14:48:31;22.25;;;13.30;;
47481;SDS011;33219;47.410;9.730;2023-03-01T14:50:59;23.67;;;14.85;;
47481;SDS011;33219;47.410;9.730;2023-03-01T14:53:27;24.07;;;14.40;;
47481;SDS011;33219;47.410;9.730;2023-03-01T14:55:59;23.05;;;13.80;;
47481;SDS011;33219;47.410;9.730;2023-03-01T14:58:28;25.17;;;15.05;;
47481;SDS011;33219;47.410;9.730;2023-03-01T15:00:59;22.65;;;14.53;;
47481;SDS011;33219;47.410;9.730;2023-03-01T15:03:32;24.10;;;15.23;;
47481;SDS011;33219;47.410;9.730;2023-03-01T15:06:05;24.47;;;14.73;;
47481;SDS011;33219;47.410;9.730;2023-03-01T15:08:33;24.47;;;14.40;;
47481;SDS011;33219;47.410;9.730;2023-03-01T15:11:20;28.55;;;16.57;;
47481;SDS011;33219;47.410;9.730;2023-03-01T15:13:57;24.12;;;14.58;;
47481;SDS011;33219;47.410;9.730;2023-03-01T15:16:32;26.73;;;14.15;;
47481;SDS011;33219;47.410;9.730;2023-03-01T15:19:02;24.63;;;14.40;;
47481;SDS011;33219;47.410;9.730;2023-03-01T15:21:32;24.60;;;14.73;;
47481;SDS011;33219;47.410;9.730;2023-03-01T15:26:45;23.53;;;14.83;;
47481;SDS011;33219;47.410;9.730;2023-03-01T15:29:22;24.02;;;13.80;;
47481;SDS011;33219;47.410;9.730;2023-03-01T15:31:42;22.52;;;14.33;;
47481;SDS011;33219;47.410;9.730;2023-03-01T15:34:11;24.10;;;14.00;;
47481;SDS011;33219;47.410;9.730;2023-03-01T15:36:50;23.62;;;14.50;;
47481;SDS011;33219;47.410;9.730;2023-03-01T15:47:49;25.97;;;14.90;;
47481;SDS011;33219;47.410;9.730;2023-03-01T15:50:19;23.90;;;15.28;;
47481;SDS011;33219;47.410;9.730;2023-03-01T15:52:49;30.20;;;15.87;;
47481;SDS011;33219;47.410;9.730;2023-03-01T15:55:27;25.27;;;14.98;;
47481;SDS011;33219;47.410;9.730;2023-03-01T15:58:08;29.37;;;14.63;;
47481;SDS011;33219;47.410;9.730;2023-03-01T16:00:42;22.13;;;13.90;;
47481;SDS011;33219;47.410;9.730;2023-03-01T16:03:11;22.98;;;14.80;;
47481;SDS011;33219;47.410;9.730;2023-03-01T16:05:39;26.63;;;15.13;;
47481;SDS011;33219;47.410;9.730;2023-03-01T16:08:06;23.47;;;14.67;;
47481;SDS011;33219;47.410;9.730;2023-03-01T16:10:34;27.30;;;15.10;;
47481;SDS011;33219;47.410;9.730;2023-03-01T16:13:03;27.37;;;16.00;;
47481;SDS011;33219;47.410;9.730;2023-03-01T16:15:32;25.30;;;14.87;;
47481;SDS011;33219;47.410;9.730;2023-03-01T16:18:01;24.63;;;14.83;;
47481;SDS011;33219;47.410;9.730;2023-03-01T16:20:31;24.63;;;14.70;;
47481;SDS011;33219;47.410;9.730;2023-03-01T16:23:04;26.43;;;14.57;;
47481;SDS011;33219;47.410;9.730;2023-03-01T16:25:29;25.80;;;14.50;;
47481;SDS011;33219;47.410;9.730;2023-03-01T16:27:58;25.33;;;15.17;;
47481;SDS011;33219;47.410;9.730;2023-03-01T16:30:27;27.20;;;14.93;;
47481;SDS011;33219;47.410;9.730;2023-03-01T16:32:55;25.70;;;14.93;;
47481;SDS011;33219;47.410;9.730;2023-03-01T16:35:23;24.87;;;14.77;;
47481;SDS011;33219;47.410;9.730;2023-03-01T16:37:50;27.03;;;14.83;;
47481;SDS011;33219;47.410;9.730;2023-03-01T16:40:22;25.43;;;15.03;;
47481;SDS011;33219;47.410;9.730;2023-03-01T16:42:54;25.08;;;14.70;;
47481;SDS011;33219;47.410;9.730;2023-03-01T16:45:24;25.27;;;14.80;;
47481;SDS011;33219;47.410;9.730;2023-03-01T16:47:54;27.90;;;15.70;;
47481;SDS011;33219;47.410;9.730;2023-03-01T16:50:24;27.73;;;16.00;;
47481;SDS011;33219;47.410;9.730;2023-03-01T16:53:00;28.83;;;15.40;;
47481;SDS011;33219;47.410;9.730;2023-03-01T16:55:30;26.23;;;15.10;;
47481;SDS011;33219;47.410;9.730;2023-03-01T16:58:03;26.00;;;14.97;;
47481;SDS011;33219;47.410;9.730;2023-03-01T17:00:30;27.43;;;15.57;;
47481;SDS011;33219;47.410;9.730;2023-03-01T17:03:02;30.45;;;16.70;;
47481;SDS011;33219;47.410;9.730;2023-03-01T17:05:37;29.13;;;16.43;;
47481;SDS011;33219;47.410;9.730;2023-03-01T17:08:00;25.30;;;15.37;;
47481;SDS011;33219;47.410;9.730;2023-03-01T17:10:27;25.10;;;15.30;;
47481;SDS011;33219;47.410;9.730;2023-03-01T17:12:57;25.60;;;15.17;;
47481;SDS011;33219;47.410;9.730;2023-03-01T17:15:25;29.30;;;16.40;;
47481;SDS011;33219;47.410;9.730;2023-03-01T17:17:56;28.37;;;15.83;;
47481;SDS011;33219;47.410;9.730;2023-03-01T17:20:26;28.33;;;15.77;;
47481;SDS011;33219;47.410;9.730;2023-03-01T17:22:54;33.67;;;18.10;;
47481;SDS011;33219;47.410;9.730;2023-03-01T17:25:21;31.77;;;17.50;;
47481;SDS011;33219;47.410;9.730;2023-03-01T17:27:49;28.77;;;15.93;;
47481;SDS011;33219;47.410;9.730;2023-03-01T17:30:17;27.03;;;16.80;;
47481;SDS011;33219;47.410;9.730;2023-03-01T17:32:45;28.13;;;16.83;;
47481;SDS011;33219;47.410;9.730;2023-03-01T17:35:13;26.93;;;15.90;;
47481;SDS011;33219;47.410;9.730;2023-03-01T17:37:41;25.77;;;14.83;;
47481;SDS011;33219;47.410;9.730;2023-03-01T17:40:10;27.20;;;15.50;;
47481;SDS011;33219;47.410;9.730;2023-03-01T17:42:39;26.40;;;14.83;;
47481;SDS011;33219;47.410;9.730;2023-03-01T17:45:06;27.87;;;14.90;;
47481;SDS011;33219;47.410;9.730;2023-03-01T17:47:34;27.90;;;15.37;;
47481;SDS011;33219;47.410;9.730;2023-03-01T17:50:02;30.13;;;17.07;;
47481;SDS011;33219;47.410;9.730;2023-03-01T17:52:33;26.40;;;15.03;;
47481;SDS011;33219;47.410;9.730;2023-03-01T17:55:00;24.87;;;13.63;;
47481;SDS011;33219;47.410;9.730;2023-03-01T17:57:28;25.57;;;14.97;;
47481;SDS011;33219;47.410;9.730;2023-03-01T17:59:56;24.60;;;14.17;;
47481;SDS011;33219;47.410;9.730;2023-03-01T18:02:24;27.53;;;15.07;;
47481;SDS011;33219;47.410;9.730;2023-03-01T18:05:01;27.10;;;15.60;;
47481;SDS011;33219;47.410;9.730;2023-03-01T18:07:27;26.00;;;15.80;;
47481;SDS011;33219;47.410;9.730;2023-03-01T18:09:55;29.00;;;15.90;;
47481;SDS011;33219;47.410;9.730;2023-03-01T18:12:23;26.23;;;16.03;;
47481;SDS011;33219;47.410;9.730;2023-03-01T18:14:51;29.03;;;15.43;;
47481;SDS011;33219;47.410;9.730;2023-03-01T18:17:20;27.63;;;16.57;;
47481;SDS011;33219;47.410;9.730;2023-03-01T18:19:49;27.23;;;16.53;;